createdAt,value
2024-04-18T00:00:30.215Z,2.00
2024-04-18T00:02:32.010Z,2.00
2024-04-18T00:04:34.021Z,2.00
2024-04-18T00:06:35.966Z,2.00
2024-04-18T00:08:37.796Z,2.00
2024-04-18T00:10:41.326Z,2.10
2024-04-18T00:12:43.276Z,2.10
2024-04-18T00:14:45.099Z,2.10
2024-04-18T00:16:46.969Z,2.20
2024-04-18T00:18:48.796Z,2.20
2024-04-18T00:20:50.590Z,2.20
2024-04-18T00:22:54.255Z,2.20
2024-04-18T00:24:56.117Z,2.30
2024-04-18T00:26:58.094Z,2.30
2024-04-18T00:28:59.884Z,2.30
2024-04-18T00:31:01.672Z,2.30
2024-04-18T00:33:03.677Z,2.30
2024-04-18T00:35:05.882Z,2.30
2024-04-18T00:37:08.000Z,2.30
2024-04-18T00:39:09.964Z,2.30
2024-04-18T00:41:12.891Z,2.30
2024-04-18T00:43:14.879Z,2.30
2024-04-18T00:45:17.416Z,2.40
2024-04-18T00:47:19.311Z,2.40
2024-04-18T00:49:22.066Z,2.40
2024-04-18T00:51:23.992Z,2.40
2024-04-18T00:53:26.727Z,2.40
2024-04-18T00:55:30.883Z,2.40
2024-04-18T00:57:33.544Z,2.40
2024-04-18T00:59:35.365Z,2.40
2024-04-18T01:01:37.429Z,2.40
2024-04-18T01:03:39.273Z,2.40
2024-04-18T01:05:41.507Z,2.30
2024-04-18T01:07:43.343Z,2.30
2024-04-18T01:09:45.225Z,2.40
2024-04-18T01:11:47.082Z,2.30
2024-04-18T01:13:48.931Z,2.30
2024-04-18T01:15:50.718Z,2.30
2024-04-18T01:17:52.695Z,2.40
2024-04-18T01:19:54.484Z,2.40
2024-04-18T01:22:00.133Z,2.30
2024-04-18T01:24:04.101Z,2.30
2024-04-18T01:26:05.850Z,2.40
2024-04-18T01:28:07.656Z,2.40
2024-04-18T01:30:09.665Z,2.40
2024-04-18T01:32:11.525Z,2.40
2024-04-18T01:34:13.431Z,2.30
2024-04-18T01:36:15.270Z,2.30
2024-04-18T01:38:17.110Z,2.30
2024-04-18T01:40:19.019Z,2.30
2024-04-18T01:42:20.905Z,2.30
2024-04-18T01:44:22.751Z,2.30
2024-04-18T01:46:24.497Z,2.30
2024-04-18T01:48:26.386Z,2.30
2024-04-18T01:50:28.272Z,2.30
2024-04-18T01:52:30.020Z,2.30
2024-04-18T01:54:32.237Z,2.30
2024-04-18T01:56:34.044Z,2.30
2024-04-18T01:58:35.835Z,2.30
2024-04-18T02:00:44.336Z,2.30
2024-04-18T02:02:46.224Z,2.40
2024-04-18T02:04:48.088Z,2.40
2024-04-18T02:06:52.636Z,2.40
2024-04-18T02:08:54.549Z,2.40
2024-04-18T02:10:56.447Z,2.30
2024-04-18T02:12:58.299Z,2.40
2024-04-18T02:15:00.060Z,2.40
2024-04-18T02:17:02.087Z,2.30
2024-04-18T02:19:04.000Z,2.30
2024-04-18T02:21:05.930Z,2.30
2024-04-18T02:23:07.725Z,2.30
2024-04-18T02:25:12.500Z,2.30
2024-04-18T02:27:14.386Z,2.30
2024-04-18T02:29:16.229Z,2.30
2024-04-18T02:31:18.078Z,2.30
2024-04-18T02:33:19.890Z,2.30
2024-04-18T02:35:21.729Z,2.30
2024-04-18T02:37:23.696Z,2.30
2024-04-18T02:39:25.517Z,2.30
2024-04-18T02:41:27.393Z,2.30
2024-04-18T02:43:29.189Z,2.30
2024-04-18T02:45:31.202Z,2.30
2024-04-18T02:47:33.188Z,2.30
2024-04-18T02:49:35.129Z,2.30
2024-04-18T02:51:36.989Z,2.30
2024-04-18T02:53:38.836Z,2.30
2024-04-18T02:55:41.418Z,2.30
2024-04-18T02:57:43.274Z,2.40
2024-04-18T02:59:45.285Z,2.30
2024-04-18T03:01:47.299Z,2.40
2024-04-18T03:03:49.267Z,2.40
2024-04-18T03:06:01.131Z,2.40
2024-04-18T03:08:03.016Z,2.40
2024-04-18T03:10:05.043Z,2.40
2024-04-18T03:12:07.012Z,2.30
2024-04-18T03:14:08.765Z,2.30
2024-04-18T03:16:10.534Z,2.30
2024-04-18T03:18:13.606Z,2.30
2024-04-18T03:20:15.525Z,2.30
2024-04-18T03:22:17.651Z,2.30
2024-04-18T03:24:20.967Z,2.30
2024-04-18T03:26:22.764Z,2.30
2024-04-18T03:28:24.684Z,2.30
2024-04-18T03:30:26.494Z,2.30
2024-04-18T03:32:28.745Z,2.30
2024-04-18T03:34:30.661Z,2.30
2024-04-18T03:36:35.415Z,2.30
2024-04-18T03:38:37.280Z,2.40
2024-04-18T03:40:39.500Z,2.40
2024-04-18T03:42:41.332Z,2.40
2024-04-18T03:44:45.788Z,2.40
2024-04-18T03:46:47.629Z,2.40
2024-04-18T03:48:49.479Z,2.30
2024-04-18T03:50:51.249Z,2.30
2024-04-18T03:52:52.996Z,2.40
2024-04-18T03:55:01.496Z,2.30
2024-04-18T03:57:04.620Z,2.30
2024-04-18T03:59:06.487Z,2.40
2024-04-18T04:01:08.356Z,2.40
2024-04-18T04:03:10.437Z,2.30
2024-04-18T04:05:12.246Z,2.30
2024-04-18T04:07:14.009Z,2.30
2024-04-18T04:09:15.837Z,2.30
2024-04-18T04:11:18.002Z,2.30
2024-04-18T04:13:19.840Z,2.30
2024-04-18T04:15:21.605Z,2.30
2024-04-18T04:17:24.035Z,2.30
2024-04-18T04:19:26.046Z,2.30
2024-04-18T04:21:28.244Z,2.30
2024-04-18T04:23:30.360Z,2.30
2024-04-18T04:25:32.120Z,2.30
2024-04-18T04:27:33.991Z,2.30
2024-04-18T04:29:35.885Z,2.30
2024-04-18T04:31:37.864Z,2.30
2024-04-18T04:33:39.735Z,2.20
2024-04-18T04:35:41.510Z,2.20
2024-04-18T04:37:43.321Z,2.30
2024-04-18T04:39:45.361Z,2.30
2024-04-18T04:41:47.176Z,2.30
2024-04-18T04:43:49.012Z,2.30
2024-04-18T04:45:57.293Z,2.30
2024-04-18T04:47:59.179Z,2.30
2024-04-18T04:50:01.018Z,2.40
2024-04-18T04:52:04.183Z,2.40
2024-04-18T04:54:07.195Z,2.40
2024-04-18T04:56:10.055Z,2.40
2024-04-18T04:58:12.028Z,2.40
2024-04-18T05:00:14.532Z,2.50
2024-04-18T05:02:16.601Z,2.50
2024-04-18T05:04:19.442Z,2.50
2024-04-18T05:06:22.309Z,2.50
2024-04-18T05:08:24.246Z,2.60
2024-04-18T05:10:26.594Z,2.60
2024-04-18T05:12:28.623Z,2.60
2024-04-18T05:14:30.571Z,2.60
2024-04-18T05:16:32.642Z,2.60
2024-04-18T05:18:34.763Z,2.60
2024-04-18T05:20:39.423Z,2.60
2024-04-18T05:22:41.527Z,2.70
2024-04-18T05:24:43.526Z,2.70
2024-04-18T05:26:45.670Z,2.80
2024-04-18T05:29:06.472Z,2.70
2024-04-18T05:31:08.906Z,2.70
2024-04-18T05:33:11.017Z,2.80
2024-04-18T05:35:13.889Z,2.80
2024-04-18T05:37:16.899Z,2.90
2024-04-18T05:39:18.987Z,2.90
2024-04-18T05:41:20.937Z,2.90
2024-04-18T05:43:22.886Z,3.00
2024-04-18T05:45:24.973Z,3.00
2024-04-18T05:47:27.036Z,3.10
2024-04-18T05:49:29.104Z,3.20
2024-04-18T05:51:31.038Z,3.20
2024-04-18T05:53:33.087Z,3.30
2024-04-18T05:55:35.058Z,3.30
2024-04-18T05:57:36.957Z,3.30
2024-04-18T05:59:38.896Z,3.30
2024-04-18T06:01:40.948Z,3.30
2024-04-18T06:03:42.944Z,3.40
2024-04-18T06:05:44.939Z,3.40
2024-04-18T06:07:46.997Z,3.40
2024-04-18T06:09:49.142Z,3.50
2024-04-18T06:11:51.321Z,3.60
2024-04-18T06:13:53.302Z,3.60
2024-04-18T06:15:55.487Z,3.70
2024-04-18T06:17:57.931Z,3.80
2024-04-18T06:19:59.922Z,3.80
2024-04-18T06:22:01.802Z,3.90
2024-04-18T06:24:03.995Z,4.00
2024-04-18T06:26:06.002Z,4.00
2024-04-18T06:28:11.221Z,4.00
2024-04-18T06:30:13.792Z,4.00
2024-04-18T06:32:15.860Z,4.00
2024-04-18T06:34:17.825Z,4.00
2024-04-18T06:36:20.370Z,3.90
2024-04-18T06:38:22.463Z,4.00
2024-04-18T06:40:27.252Z,4.00
2024-04-18T06:42:30.238Z,4.10
2024-04-18T06:44:32.351Z,4.20
2024-04-18T06:46:42.538Z,4.20
2024-04-18T06:48:50.854Z,4.20
2024-04-18T06:50:52.769Z,4.30
2024-04-18T06:52:54.788Z,4.40
2024-04-18T06:54:56.682Z,4.30
2024-04-18T06:56:58.627Z,4.30
2024-04-18T06:59:00.620Z,4.20
2024-04-18T07:01:02.974Z,4.20
2024-04-18T07:03:08.535Z,4.20
2024-04-18T07:05:10.546Z,4.20
2024-04-18T07:07:12.966Z,4.30
2024-04-18T07:09:14.900Z,4.40
2024-04-18T07:11:16.910Z,4.50
2024-04-18T07:13:18.959Z,4.50
2024-04-18T07:15:21.138Z,4.60
2024-04-18T07:17:23.301Z,4.70
2024-04-18T07:19:25.440Z,4.90
2024-04-18T07:21:27.425Z,4.90
2024-04-18T07:23:29.499Z,5.10
2024-04-18T07:25:31.505Z,5.30
2024-04-18T07:27:33.495Z,5.40
2024-04-18T07:29:35.472Z,5.80
2024-04-18T07:31:37.379Z,6.10
2024-04-18T07:33:39.462Z,6.00
2024-04-18T07:35:41.506Z,6.10
2024-04-18T07:37:43.463Z,6.30
2024-04-18T07:39:45.758Z,6.40
2024-04-18T07:41:47.936Z,6.30
2024-04-18T07:43:49.855Z,6.20
2024-04-18T07:45:51.852Z,5.90
2024-04-18T07:47:53.856Z,5.70
2024-04-18T07:49:55.798Z,5.70
2024-04-18T07:51:57.881Z,5.70
2024-04-18T07:54:00.010Z,5.70
2024-04-18T07:56:02.452Z,5.60
2024-04-18T07:58:05.525Z,5.60
2024-04-18T08:00:09.399Z,5.60
2024-04-18T08:02:13.173Z,5.50
2024-04-18T08:04:34.957Z,5.50
2024-04-18T08:06:40.280Z,5.40
2024-04-18T08:08:45.906Z,5.30
2024-04-18T08:11:08.275Z,5.20
2024-04-18T08:13:15.125Z,5.10
2024-04-18T08:15:23.871Z,4.90
2024-04-18T08:17:29.535Z,5.00
2024-04-18T08:19:32.234Z,5.00
2024-04-18T08:21:34.237Z,5.20
2024-04-18T08:23:36.305Z,5.40
2024-04-18T08:25:38.339Z,5.60
2024-04-18T08:27:40.351Z,5.80
2024-04-18T08:29:42.333Z,5.80
2024-04-18T08:31:44.296Z,5.70
2024-04-18T08:33:57.753Z,5.80
2024-04-18T08:36:04.787Z,6.00
2024-04-18T08:38:09.700Z,6.30
2024-04-18T08:40:12.135Z,6.70
2024-04-18T08:42:14.172Z,6.90
2024-04-18T08:44:16.866Z,7.20
2024-04-18T08:46:19.460Z,7.60
2024-04-18T08:48:24.097Z,7.50
2024-04-18T08:50:27.633Z,7.70
2024-04-18T08:52:35.682Z,8.40
2024-04-18T08:54:38.068Z,9.00
2024-04-18T08:56:46.834Z,9.30
2024-04-18T08:58:49.009Z,9.50
2024-04-18T09:00:51.037Z,9.10
2024-04-18T09:02:54.159Z,9.00
2024-04-18T09:04:58.124Z,8.90
2024-04-18T09:07:00.020Z,8.90
2024-04-18T09:09:02.256Z,9.10
2024-04-18T09:11:05.572Z,9.40
2024-04-18T09:13:07.867Z,9.50
2024-04-18T09:15:09.874Z,9.20
2024-04-18T09:17:15.497Z,8.70
2024-04-18T09:19:19.383Z,8.50
2024-04-18T09:21:21.953Z,8.10
2024-04-18T09:23:23.822Z,7.80
2024-04-18T09:25:25.953Z,7.80
2024-04-18T09:27:28.001Z,8.00
2024-04-18T09:29:30.164Z,7.90
2024-04-18T09:31:38.431Z,8.60
2024-04-18T09:33:47.691Z,9.10
2024-04-18T09:35:51.343Z,9.70
2024-04-18T09:38:00.861Z,9.90
2024-04-18T09:40:10.610Z,10.00
2024-04-18T09:42:41.834Z,10.60
2024-04-18T09:44:47.752Z,10.80
2024-04-18T09:46:51.973Z,11.10
2024-04-18T09:48:55.337Z,10.70
2024-04-18T09:50:57.397Z,10.50
2024-04-18T09:52:59.790Z,10.30
2024-04-18T09:55:03.216Z,10.20
2024-04-18T09:57:06.542Z,10.20
2024-04-18T09:59:10.106Z,10.30
2024-04-18T10:01:13.533Z,10.10
2024-04-18T10:03:17.006Z,9.70
2024-04-18T10:05:19.693Z,9.20
2024-04-18T10:07:24.914Z,8.70
2024-04-18T10:09:28.392Z,8.30
2024-04-18T10:11:30.779Z,8.20
2024-04-18T10:13:32.757Z,8.20
2024-04-18T10:15:34.754Z,8.10
2024-04-18T10:17:36.845Z,8.10
2024-04-18T10:19:46.043Z,8.00
2024-04-18T10:24:05.725Z,7.50
2024-04-18T10:26:14.922Z,6.90
2024-04-18T10:28:32.143Z,6.30
2024-04-18T10:30:35.071Z,5.90
2024-04-18T10:32:37.874Z,5.50
2024-04-18T10:34:42.434Z,5.30
2024-04-18T10:36:45.192Z,5.10
2024-04-18T10:38:48.423Z,5.00
2024-04-18T10:41:02.873Z,4.90
2024-04-18T10:43:17.813Z,5.00
2024-04-18T10:45:22.472Z,5.10
2024-04-18T10:47:24.484Z,5.30
2024-04-18T10:49:26.682Z,5.50
2024-04-18T10:51:29.772Z,5.70
2024-04-18T10:53:35.265Z,6.00
2024-04-18T10:55:38.343Z,6.40
2024-04-18T10:57:40.660Z,6.80
2024-04-18T10:59:48.474Z,7.20
2024-04-18T11:01:50.840Z,7.60
2024-04-18T11:03:53.960Z,8.10
2024-04-18T11:06:01.984Z,8.40
2024-04-18T11:08:04.954Z,9.10
2024-04-18T11:10:08.123Z,9.70
2024-04-18T11:12:10.654Z,10.20
2024-04-18T11:14:14.921Z,10.40
2024-04-18T11:16:17.247Z,10.40
2024-04-18T11:18:19.294Z,10.50
2024-04-18T11:20:21.321Z,10.30
2024-04-18T11:22:23.349Z,10.20
2024-04-18T11:24:25.222Z,10.30
2024-04-18T11:26:30.141Z,11.10
2024-04-18T11:28:33.146Z,11.40
2024-04-18T11:30:40.268Z,11.10
2024-04-18T11:32:42.338Z,10.50
2024-04-18T11:34:44.324Z,9.60
2024-04-18T11:36:46.338Z,8.90
2024-04-18T11:38:48.866Z,8.50
2024-04-18T11:40:50.860Z,8.20
2024-04-18T11:42:52.734Z,8.00
2024-04-18T11:44:54.693Z,7.70
2024-04-18T11:46:56.728Z,7.80
2024-04-18T11:48:58.767Z,9.00
2024-04-18T11:51:04.233Z,10.60
2024-04-18T11:53:06.167Z,11.20
2024-04-18T11:55:08.241Z,10.80
2024-04-18T11:57:10.103Z,10.30
2024-04-18T11:59:12.131Z,9.80
2024-04-18T12:01:15.373Z,9.00
2024-04-18T12:03:17.496Z,8.30
2024-04-18T12:05:19.536Z,7.80
2024-04-18T12:07:21.487Z,7.40
2024-04-18T12:09:23.487Z,7.20
2024-04-18T12:11:25.517Z,6.90
2024-04-18T12:13:27.947Z,6.90
2024-04-18T12:15:32.568Z,6.80
2024-04-18T12:17:34.583Z,6.90
2024-04-18T12:19:36.545Z,7.90
2024-04-18T12:21:38.582Z,9.90
2024-04-18T12:23:44.367Z,11.50
2024-04-18T12:25:46.521Z,12.30
2024-04-18T12:27:48.612Z,13.00
2024-04-18T12:29:50.582Z,13.60
2024-04-18T12:31:52.569Z,13.10
2024-04-18T12:33:54.631Z,12.20
2024-04-18T12:35:56.711Z,11.30
2024-04-18T12:37:58.997Z,10.60
2024-04-18T12:40:02.552Z,9.90
2024-04-18T12:42:04.846Z,9.30
2024-04-18T12:44:06.865Z,8.80
2024-04-18T12:46:15.273Z,8.40
2024-04-18T12:48:24.255Z,8.10
2024-04-18T12:50:26.877Z,7.80
2024-04-18T12:52:29.049Z,7.40
2024-04-18T12:54:31.038Z,7.30
2024-04-18T12:56:33.404Z,7.20
2024-04-18T12:58:37.567Z,7.30
2024-04-18T13:00:40.758Z,7.30
2024-04-18T13:02:42.656Z,7.50
2024-04-18T13:04:45.283Z,7.60
2024-04-18T13:06:47.465Z,7.90
2024-04-18T13:08:49.542Z,8.30
2024-04-18T13:10:51.559Z,8.60
2024-04-18T13:12:53.500Z,8.90
2024-04-18T13:14:55.426Z,9.60
2024-04-18T13:16:57.488Z,10.50
2024-04-18T13:18:59.580Z,11.30
2024-04-18T13:21:01.554Z,12.20
2024-04-18T13:23:03.692Z,12.40
2024-04-18T13:25:06.278Z,13.50
2024-04-18T13:27:08.298Z,14.50
2024-04-18T13:29:10.209Z,15.20
2024-04-18T13:31:14.899Z,16.00
2024-04-18T13:33:17.004Z,16.50
2024-04-18T13:35:19.586Z,16.30
2024-04-18T13:37:21.707Z,17.10
2024-04-18T13:39:24.022Z,17.90
2024-04-18T13:41:28.122Z,17.30
2024-04-18T13:43:30.096Z,17.30
2024-04-18T13:45:33.765Z,18.40
2024-04-18T13:47:35.984Z,19.60
2024-04-18T13:49:37.975Z,20.20
2024-04-18T13:51:40.002Z,18.90
2024-04-18T13:53:42.105Z,16.90
2024-04-18T13:55:44.123Z,15.20
2024-04-18T13:57:48.554Z,13.90
2024-04-18T13:59:53.460Z,12.80
2024-04-18T14:01:55.383Z,11.70
2024-04-18T14:03:57.450Z,11.10
2024-04-18T14:05:59.459Z,10.60
2024-04-18T14:08:02.196Z,10.20
2024-04-18T14:10:05.498Z,10.10
2024-04-18T14:12:07.681Z,10.30
2024-04-18T14:14:10.451Z,10.90
2024-04-18T14:16:31.209Z,11.60
2024-04-18T14:18:51.446Z,12.00
2024-04-18T14:20:53.985Z,13.00
2024-04-18T14:22:57.882Z,14.30
2024-04-18T14:25:00.054Z,15.30
2024-04-18T14:27:02.246Z,15.80
2024-04-18T14:29:04.227Z,16.80
2024-04-18T14:31:06.146Z,18.10
2024-04-18T14:33:08.175Z,18.80
2024-04-18T14:35:11.002Z,18.20
2024-04-18T14:37:12.922Z,17.60
2024-04-18T14:39:15.016Z,17.30
2024-04-18T14:41:16.953Z,16.90
2024-04-18T14:43:19.496Z,16.40
2024-04-18T14:45:21.568Z,15.80
2024-04-18T14:47:23.592Z,15.10
2024-04-18T14:49:26.844Z,14.20
2024-04-18T14:51:29.342Z,13.70
2024-04-18T14:53:31.353Z,13.30
2024-04-18T14:55:33.255Z,12.80
2024-04-18T14:57:35.517Z,12.10
2024-04-18T14:59:37.541Z,11.40
2024-04-18T15:01:39.486Z,10.90
2024-04-18T15:03:41.535Z,10.50
2024-04-18T15:06:12.066Z,10.20
2024-04-18T15:08:14.435Z,9.80
2024-04-18T15:10:16.955Z,9.50
2024-04-18T15:12:19.060Z,9.30
2024-04-18T15:14:21.022Z,9.20
2024-04-18T15:16:22.939Z,9.30
2024-04-18T15:18:24.950Z,9.30
2024-04-18T15:20:26.882Z,9.40
2024-04-18T15:22:29.082Z,9.40
2024-04-18T15:24:31.273Z,9.40
2024-04-18T15:26:33.522Z,9.50
2024-04-18T15:28:38.801Z,10.70
2024-04-18T15:30:41.290Z,12.20
2024-04-18T15:32:43.309Z,13.50
2024-04-18T15:34:45.312Z,14.50
2024-04-18T15:36:47.296Z,15.60
2024-04-18T15:38:50.796Z,16.40
2024-04-18T15:40:55.341Z,16.50
2024-04-18T15:42:57.220Z,16.60
2024-04-18T15:44:59.190Z,16.40
2024-04-18T15:47:01.676Z,16.10
2024-04-18T15:49:04.950Z,16.20
2024-04-18T15:51:09.132Z,16.60
2024-04-18T15:53:11.504Z,16.80
2024-04-18T15:55:20.051Z,17.00
2024-04-18T15:57:24.254Z,16.80
2024-04-18T15:59:26.187Z,16.90
2024-04-18T16:01:28.158Z,16.70
2024-04-18T16:03:30.175Z,16.70
2024-04-18T16:05:32.271Z,16.90
2024-04-18T16:07:34.494Z,16.80
2024-04-18T16:09:36.604Z,16.50
2024-04-18T16:11:40.404Z,16.60
2024-04-18T16:13:42.602Z,16.40
2024-04-18T16:15:44.696Z,16.40
2024-04-18T16:17:46.645Z,16.50
2024-04-18T16:19:49.097Z,16.50
2024-04-18T16:21:51.122Z,16.70
2024-04-18T16:23:53.128Z,16.30
2024-04-18T16:25:55.254Z,16.00
2024-04-18T16:27:57.313Z,15.40
2024-04-18T16:29:59.361Z,14.60
2024-04-18T16:32:01.248Z,13.80
2024-04-18T16:34:03.144Z,13.00
2024-04-18T16:36:05.518Z,12.00
2024-04-18T16:38:07.934Z,11.30
2024-04-18T16:40:10.415Z,10.60
2024-04-18T16:42:12.477Z,10.10
2024-04-18T16:44:16.089Z,9.80
2024-04-18T16:46:19.146Z,9.60
2024-04-18T16:48:21.267Z,9.40
2024-04-18T16:50:23.203Z,9.50
2024-04-18T16:52:25.195Z,9.60
2024-04-18T16:54:27.157Z,9.80
2024-04-18T16:56:29.019Z,9.90
2024-04-18T16:58:32.558Z,9.80
2024-04-18T17:00:34.526Z,9.90
2024-04-18T17:02:36.557Z,9.80
2024-04-18T17:04:38.636Z,9.80
2024-04-18T17:06:45.929Z,10.10
2024-04-18T17:08:50.349Z,10.60
2024-04-18T17:10:52.335Z,11.30
2024-04-18T17:12:54.200Z,11.70
2024-04-18T17:14:56.224Z,12.00
2024-04-18T17:16:58.229Z,12.30
2024-04-18T17:19:01.338Z,12.50
2024-04-18T17:21:03.979Z,12.60
2024-04-18T17:23:05.890Z,12.40
2024-04-18T17:25:09.868Z,12.10
2024-04-18T17:27:11.899Z,11.20
2024-04-18T17:29:13.782Z,10.70
2024-04-18T17:31:15.758Z,10.20
2024-04-18T17:33:17.654Z,9.50
2024-04-18T17:35:19.567Z,9.30
2024-04-18T17:37:22.482Z,9.50
2024-04-18T17:39:24.557Z,9.60
2024-04-18T17:41:26.581Z,9.70
2024-04-18T17:43:28.453Z,9.70
2024-04-18T17:45:30.485Z,9.60
2024-04-18T17:47:36.256Z,9.10
2024-04-18T17:49:38.888Z,8.50
2024-04-18T17:51:40.873Z,7.80
2024-04-18T17:53:42.818Z,7.30
2024-04-18T17:55:45.321Z,6.90
2024-04-18T17:57:47.296Z,6.50
2024-04-18T17:59:49.380Z,6.20
2024-04-18T18:01:53.011Z,5.90
2024-04-18T18:03:54.865Z,5.70
2024-04-18T18:05:56.826Z,5.60
2024-04-18T18:07:58.818Z,5.40
2024-04-18T18:10:00.709Z,5.20
2024-04-18T18:12:02.797Z,5.10
2024-04-18T18:14:04.714Z,5.00
2024-04-18T18:16:08.104Z,4.80
2024-04-18T18:18:10.438Z,4.70
2024-04-18T18:20:12.617Z,4.60
2024-04-18T18:22:14.583Z,4.50
2024-04-18T18:24:16.388Z,4.40
2024-04-18T18:26:18.228Z,4.30
2024-04-18T18:28:20.102Z,4.20
2024-04-18T18:30:22.062Z,4.10
2024-04-18T18:32:24.230Z,4.00
2024-04-18T18:34:26.086Z,4.00
2024-04-18T18:36:27.917Z,3.90
2024-04-18T18:38:29.805Z,3.90
2024-04-18T18:40:34.838Z,3.90
2024-04-18T18:42:38.131Z,3.90
2024-04-18T18:44:40.155Z,3.90
2024-04-18T18:46:41.945Z,3.80
2024-04-18T18:48:43.796Z,3.80
2024-04-18T18:50:45.618Z,3.80
2024-04-18T18:52:47.431Z,3.80
2024-04-18T18:54:49.362Z,3.90
2024-04-18T18:56:51.203Z,4.00
2024-04-18T18:58:53.089Z,4.10
2024-04-18T19:00:54.924Z,4.20
2024-04-18T19:02:57.989Z,4.20
2024-04-18T19:05:00.431Z,4.30
2024-04-18T19:07:02.458Z,4.30
2024-04-18T19:09:07.164Z,4.20
2024-04-18T19:11:09.112Z,4.20
2024-04-18T19:13:10.981Z,4.10
2024-04-18T19:15:17.023Z,4.00
2024-04-18T19:17:20.530Z,4.00
2024-04-18T19:19:25.266Z,4.00
2024-04-18T19:21:27.286Z,4.10
2024-04-18T19:23:36.552Z,4.20
2024-04-18T19:25:41.480Z,4.30
2024-04-18T19:27:43.790Z,4.30
2024-04-18T19:29:47.620Z,4.40
2024-04-18T19:31:49.725Z,4.50
2024-04-18T19:33:51.806Z,4.60
2024-04-18T19:35:53.794Z,4.60
2024-04-18T19:37:56.222Z,4.70
2024-04-18T19:39:58.055Z,4.70
2024-04-18T19:42:00.891Z,4.70
2024-04-18T19:44:03.456Z,4.70
2024-04-18T19:46:05.461Z,4.70
2024-04-18T19:48:08.207Z,4.70
2024-04-18T19:50:10.109Z,4.60
2024-04-18T19:52:11.943Z,4.50
2024-04-18T19:54:13.790Z,4.40
2024-04-18T19:56:15.663Z,4.30
2024-04-18T19:58:18.310Z,4.30
2024-04-18T20:00:20.170Z,4.20
2024-04-18T20:02:22.051Z,4.10
2024-04-18T20:04:23.940Z,4.00
2024-04-18T20:06:25.894Z,3.90
2024-04-18T20:08:27.727Z,3.80
2024-04-18T20:10:29.624Z,3.80
2024-04-18T20:12:31.421Z,3.70
2024-04-18T20:14:33.310Z,3.70
2024-04-18T20:16:35.334Z,3.60
2024-04-18T20:18:37.364Z,3.50
2024-04-18T20:20:39.453Z,3.40
2024-04-18T20:22:44.506Z,3.30
2024-04-18T20:24:46.481Z,3.30
2024-04-18T20:26:48.372Z,3.30
2024-04-18T20:28:51.415Z,3.20
2024-04-18T20:30:53.260Z,3.20
2024-04-18T20:32:55.080Z,3.20
2024-04-18T20:34:57.260Z,3.20
2024-04-18T20:36:59.043Z,3.10
2024-04-18T20:39:00.905Z,3.10
2024-04-18T20:41:02.722Z,3.10
2024-04-18T20:43:04.719Z,3.10
2024-04-18T20:45:07.240Z,3.10
2024-04-18T20:47:09.032Z,3.10
2024-04-18T20:49:10.930Z,3.10
2024-04-18T20:51:12.815Z,3.10
2024-04-18T20:53:14.611Z,3.10
2024-04-18T20:55:16.552Z,3.10
2024-04-18T20:57:18.790Z,3.10
2024-04-18T20:59:20.901Z,3.10
2024-04-18T21:01:22.751Z,3.10
2024-04-18T21:03:24.687Z,3.10
2024-04-18T21:05:26.582Z,3.10
2024-04-18T21:07:28.428Z,3.10
2024-04-18T21:09:30.241Z,3.10
2024-04-18T21:11:32.583Z,3.10
2024-04-18T21:13:34.358Z,3.10
2024-04-18T21:15:37.109Z,3.10
2024-04-18T21:17:39.007Z,3.20
2024-04-18T21:19:40.924Z,3.20
2024-04-18T21:21:42.837Z,3.20
2024-04-18T21:23:44.892Z,3.20
2024-04-18T21:25:46.876Z,3.20
2024-04-18T21:27:48.750Z,3.10
2024-04-18T21:29:50.576Z,3.10
2024-04-18T21:31:52.354Z,3.20
2024-04-18T21:33:54.326Z,3.20
2024-04-18T21:35:56.240Z,3.20
2024-04-18T21:37:58.133Z,3.20
2024-04-18T21:39:59.965Z,3.20
2024-04-18T21:42:01.784Z,3.20
2024-04-18T21:44:03.951Z,3.20
2024-04-18T21:46:05.732Z,3.20
2024-04-18T21:48:08.104Z,3.10
2024-04-18T21:50:09.972Z,3.00
2024-04-18T21:52:11.804Z,3.00
2024-04-18T21:54:13.610Z,2.90
2024-04-18T21:56:15.687Z,2.90
2024-04-18T21:58:17.629Z,2.80
2024-04-18T22:00:19.522Z,2.70
2024-04-18T22:02:21.366Z,2.70
2024-04-18T22:04:23.301Z,2.60
2024-04-18T22:06:25.444Z,2.50
2024-04-18T22:08:27.273Z,2.50
2024-04-18T22:10:29.141Z,2.40
2024-04-18T22:12:31.228Z,2.40
2024-04-18T22:14:33.058Z,2.30
2024-04-18T22:16:35.301Z,2.30
2024-04-18T22:18:37.345Z,2.30
2024-04-18T22:20:40.232Z,2.30
2024-04-18T22:22:42.051Z,2.30
2024-04-18T22:24:44.220Z,2.20
2024-04-18T22:26:46.010Z,2.30
2024-04-18T22:28:47.831Z,2.20
2024-04-18T22:31:00.812Z,2.30
2024-04-18T22:33:02.900Z,2.30
2024-04-18T22:35:05.280Z,2.20
2024-04-18T22:37:07.094Z,2.30
2024-04-18T22:39:08.992Z,2.30
2024-04-18T22:41:10.855Z,2.30
2024-04-18T22:43:12.641Z,2.30
2024-04-18T22:45:14.504Z,2.40
2024-04-18T22:47:16.434Z,2.40
2024-04-18T22:49:18.409Z,2.50
2024-04-18T22:51:20.312Z,2.50
2024-04-18T22:53:22.195Z,2.60
2024-04-18T22:55:25.639Z,2.70
2024-04-18T22:57:27.456Z,2.70
2024-04-18T22:59:29.750Z,2.80
2024-04-18T23:01:31.640Z,2.80
2024-04-18T23:03:33.656Z,2.90
2024-04-18T23:05:35.744Z,2.90
2024-04-18T23:07:37.537Z,2.90
2024-04-18T23:09:39.402Z,2.90
2024-04-18T23:11:41.432Z,2.90
2024-04-18T23:13:43.253Z,2.80
2024-04-18T23:15:45.375Z,2.90
2024-04-18T23:17:47.302Z,2.90
2024-04-18T23:19:49.074Z,2.80
2024-04-18T23:21:50.935Z,2.80
2024-04-18T23:23:52.740Z,2.80
2024-04-18T23:25:54.735Z,2.70
2024-04-18T23:27:56.506Z,2.70
2024-04-18T23:29:58.292Z,2.70
2024-04-18T23:32:00.188Z,2.70
2024-04-18T23:34:02.054Z,2.60
2024-04-18T23:36:04.126Z,2.60
2024-04-18T23:38:05.894Z,2.70
2024-04-18T23:40:08.291Z,2.60
2024-04-18T23:42:10.268Z,2.60
2024-04-18T23:44:12.061Z,2.70
2024-04-18T23:46:13.833Z,2.70
2024-04-18T23:48:15.846Z,2.70
2024-04-18T23:50:17.766Z,2.70
2024-04-18T23:52:19.548Z,2.60
2024-04-18T23:54:21.302Z,2.60
2024-04-18T23:56:23.084Z,2.50
2024-04-18T23:58:24.891Z,2.50
